Cotulla, Texas
Current Conditions -  °F | °C
As of 1:53 PM on Saturday 25 Oct 2014 (Local Time) from KCOT Reporting Station
Clear Clear  
Wind Chill: 31°   Ceiling: Unl
Heat Index: 31°   Visibility: 10mi
Dew Point: 14°   Wind: 7mph
Humidity: 35%   Direction: 120°ESE
Pressure: 30.12"   Gusts: NA
Location:  28.44°N, 99.24°W
Report Text: KCOT 251853Z AUTO 12006KT 10SM CLR 31/14 A3012 RMK AO2 SLP192 T03110139
Loading
Personal Weather Stations






























Interactive Weather Map
Tropical Storm Tracking
New forecast layout! Learn more

10-Day Weather Forecast

Advertisements
Track Severe Weather on mobile